Time;durP1;ratioP1;P1;durP2;ratioP2;P2;SDS_P1;SDS_P2;PMS_P1;PMS_P2;Temp;Humidity;BMP_temperature;BMP_pressure;BME280_temperature;BME280_humidity;BME280_pressure;Samples;Min_cycle;Max_cycle;Signal;HPM_P1;HPM_P2
2023/01/26 00:01:13;;;;;;;50.87;28.43;;;;;;;;;;5033575;28;20800;-86
2023/01/26 00:03:39;;;;;;;50.83;29.50;;;;;;;;;;5034364;28;20963;-85
2023/01/26 00:06:06;;;;;;;52.27;29.43;;;;;;;;;;5035578;28;20450;-85
2023/01/26 00:08:36;;;;;;;54.63;29.30;;;;;;;;;;5034258;28;20872;-86
2023/01/26 00:11:03;;;;;;;50.03;30.07;;;;;;;;;;5034123;28;20436;-86
2023/01/26 00:13:29;;;;;;;53.73;29.63;;;;;;;;;;5034470;28;20420;-85
2023/01/26 00:15:55;;;;;;;54.77;30.80;;;;;;;;;;5032453;28;20436;-86
2023/01/26 00:18:21;;;;;;;53.07;30.60;;;;;;;;;;5035171;28;20484;-86
2023/01/26 00:20:49;;;;;;;54.87;30.03;;;;;;;;;;5033481;28;20432;-86
2023/01/26 00:23:15;;;;;;;57.27;31.20;;;;;;;;;;5035221;28;20647;-86
2023/01/26 00:25:41;;;;;;;54.93;30.63;;;;;;;;;;5030245;28;20428;-86
2023/01/26 00:28:07;;;;;;;58.00;32.93;;;;;;;;;;5029635;28;20788;-86
2023/01/26 00:30:33;;;;;;;55.73;31.50;;;;;;;;;;5031262;28;20415;-87
2023/01/26 00:32:59;;;;;;;55.23;30.13;;;;;;;;;;5033538;28;20429;-88
2023/01/26 00:35:25;;;;;;;55.23;30.13;;;;;;;;;;5040340;28;20486;-87
2023/01/26 00:37:51;;;;;;;53.17;30.97;;;;;;;;;;5035491;28;20425;-87
2023/01/26 00:40:17;;;;;;;54.93;30.40;;;;;;;;;;5034271;28;20421;-86
2023/01/26 00:42:43;;;;;;;53.87;30.63;;;;;;;;;;5032639;28;20459;-86
2023/01/26 00:45:09;;;;;;;52.80;30.73;;;;;;;;;;5035682;28;20440;-86
2023/01/26 00:47:35;;;;;;;50.73;29.03;;;;;;;;;;5033419;28;20709;-86
2023/01/26 00:50:01;;;;;;;52.70;30.57;;;;;;;;;;5034089;28;20400;-86
2023/01/26 00:52:27;;;;;;;52.80;29.23;;;;;;;;;;5033371;28;20499;-86
2023/01/26 00:54:53;;;;;;;54.53;29.17;;;;;;;;;;5032781;28;20456;-87
2023/01/26 00:57:19;;;;;;;52.90;30.33;;;;;;;;;;5033807;28;20915;-86
2023/01/26 00:59:45;;;;;;;49.47;28.30;;;;;;;;;;5033141;28;20503;-86
2023/01/26 01:02:12;;;;;;;54.87;29.57;;;;;;;;;;5032712;28;20990;-86
2023/01/26 01:04:38;;;;;;;54.20;30.37;;;;;;;;;;5034898;28;20447;-85
2023/01/26 01:07:04;;;;;;;54.90;30.27;;;;;;;;;;5032615;28;20780;-86
2023/01/26 01:09:30;;;;;;;55.17;29.90;;;;;;;;;;5034198;28;20830;-85
2023/01/26 01:11:56;;;;;;;53.67;30.90;;;;;;;;;;5033106;28;20412;-88
2023/01/26 01:14:22;;;;;;;54.77;29.40;;;;;;;;;;5032111;28;20405;-85
2023/01/26 01:16:48;;;;;;;50.67;28.33;;;;;;;;;;5034102;28;20432;-86
2023/01/26 01:19:14;;;;;;;50.07;28.27;;;;;;;;;;5032292;28;20905;-87
2023/01/26 01:21:41;;;;;;;49.90;28.87;;;;;;;;;;5030926;28;20973;-87
2023/01/26 01:24:07;;;;;;;48.17;28.83;;;;;;;;;;5027178;28;20487;-86
2023/01/26 01:26:33;;;;;;;52.73;28.83;;;;;;;;;;5026920;28;20437;-87
2023/01/26 01:28:59;;;;;;;51.73;28.53;;;;;;;;;;5027528;28;20444;-86
2023/01/26 01:31:28;;;;;;;47.50;27.27;;;;;;;;;;5028419;28;20428;-87
2023/01/26 01:33:54;;;;;;;48.60;27.53;;;;;;;;;;5031667;28;20526;-88
2023/01/26 01:36:20;;;;;;;55.70;28.43;;;;;;;;;;5027687;28;20444;-86
2023/01/26 01:38:46;;;;;;;48.77;27.03;;;;;;;;;;5026693;28;20428;-85
2023/01/26 01:41:13;;;;;;;48.47;27.53;;;;;;;;;;5031568;28;20872;-85
2023/01/26 01:43:39;;;;;;;49.37;27.00;;;;;;;;;;5032597;28;20452;-86
2023/01/26 01:46:14;;;;;;;45.33;26.00;;;;;;;;;;5032940;28;20444;-86
2023/01/26 01:48:51;;;;;;;46.33;25.67;;;;;;;;;;5032235;28;20412;-87
2023/01/26 01:51:26;;;;;;;47.27;26.77;;;;;;;;;;5030727;28;20954;-85
2023/01/26 01:53:53;;;;;;;49.07;26.30;;;;;;;;;;5031280;28;20560;-85
2023/01/26 01:56:21;;;;;;;48.83;26.87;;;;;;;;;;5031081;28;20416;-85
2023/01/26 01:58:48;;;;;;;45.63;25.90;;;;;;;;;;5032066;28;20421;-87
2023/01/26 02:01:14;;;;;;;43.67;24.83;;;;;;;;;;5034260;28;20436;-87
2023/01/26 02:03:42;;;;;;;48.80;26.10;;;;;;;;;;5034041;28;20516;-87
2023/01/26 02:06:16;;;;;;;43.03;25.60;;;;;;;;;;5033677;28;20584;-86
2023/01/26 02:08:47;;;;;;;45.20;24.73;;;;;;;;;;5030496;28;20425;-86
2023/01/26 02:11:35;;;;;;;41.40;25.83;;;;;;;;;;5031812;28;20459;-86
2023/01/26 02:14:03;;;;;;;38.93;23.90;;;;;;;;;;5031071;28;20507;-87
2023/01/26 02:16:29;;;;;;;41.67;24.13;;;;;;;;;;5032472;28;20425;-86
2023/01/26 02:18:55;;;;;;;40.00;23.43;;;;;;;;;;5032678;28;20439;-86
2023/01/26 02:21:22;;;;;;;40.63;24.17;;;;;;;;;;5033442;28;20416;-88
2023/01/26 02:23:48;;;;;;;43.43;24.10;;;;;;;;;;5032094;28;20825;-86
2023/01/26 02:26:15;;;;;;;42.93;25.07;;;;;;;;;;5033088;28;20868;-87
2023/01/26 02:28:42;;;;;;;38.23;22.23;;;;;;;;;;5031372;28;20421;-86
2023/01/26 02:31:09;;;;;;;44.40;23.60;;;;;;;;;;5032250;28;20773;-86
2023/01/26 02:33:35;;;;;;;39.30;22.63;;;;;;;;;;5032566;28;20486;-87
2023/01/26 02:36:02;;;;;;;37.43;23.27;;;;;;;;;;5033606;28;20841;-86
2023/01/26 02:38:48;;;;;;;44.27;23.30;;;;;;;;;;5033821;28;20943;-86
2023/01/26 02:42:37;;;;;;;38.97;22.23;;;;;;;;;;4994329;28;20443;-87
2023/01/26 02:44:03;;;;;;;38.63;22.30;;;;;;;;;;5031816;28;20694;-87
2023/01/26 02:46:29;;;;;;;40.57;24.20;;;;;;;;;;5017481;28;20436;-86
2023/01/26 02:51:40;;;;;;;41.53;21.77;;;;;;;;;;5032934;28;20526;-86
2023/01/26 02:54:06;;;;;;;36.33;21.57;;;;;;;;;;5030186;28;20452;-87
2023/01/26 02:56:32;;;;;;;39.47;20.90;;;;;;;;;;5026875;28;20409;-87
2023/01/26 02:58:58;;;;;;;35.47;22.17;;;;;;;;;;5013024;28;20393;-86
2023/01/26 03:01:24;;;;;;;39.23;22.10;;;;;;;;;;5020888;28;20431;-85
2023/01/26 03:03:50;;;;;;;37.90;21.27;;;;;;;;;;5031954;28;20460;-86
2023/01/26 03:06:17;;;;;;;38.63;22.27;;;;;;;;;;5031626;28;20496;-86
2023/01/26 03:08:43;;;;;;;36.93;21.10;;;;;;;;;;5032467;28;20865;-86
2023/01/26 03:11:09;;;;;;;35.77;21.47;;;;;;;;;;5032358;28;20405;-86
2023/01/26 03:13:35;;;;;;;43.27;23.43;;;;;;;;;;5032386;28;20433;-87
2023/01/26 03:16:05;;;;;;;40.90;21.40;;;;;;;;;;5031938;28;20431;-87
2023/01/26 03:29:32;;;;;;;38.97;21.40;;;;;;;;;;5026803;28;20411;-87
2023/01/26 03:31:58;;;;;;;35.53;20.47;;;;;;;;;;5031303;28;20417;-86
2023/01/26 03:34:25;;;;;;;37.67;21.20;;;;;;;;;;5031505;28;20408;-87
2023/01/26 03:36:51;;;;;;;36.50;21.33;;;;;;;;;;5029516;28;20528;-87
2023/01/26 03:58:30;;;;;;;40.43;21.90;;;;;;;;;;5033917;28;20974;-85
2023/01/26 04:00:57;;;;;;;38.30;20.83;;;;;;;;;;5031570;28;20454;-85
2023/01/26 04:08:52;;;;;;;37.03;19.97;;;;;;;;;;5031995;28;20439;-88
2023/01/26 04:11:18;;;;;;;39.00;21.87;;;;;;;;;;5030952;28;20432;-87
2023/01/26 04:21:59;;;;;;;36.63;20.77;;;;;;;;;;5033975;28;20907;-86
2023/01/26 04:24:25;;;;;;;34.97;21.07;;;;;;;;;;5030878;28;20849;-86
2023/01/26 04:26:51;;;;;;;36.70;21.57;;;;;;;;;;5032370;28;20522;-85
2023/01/26 04:29:17;;;;;;;41.20;22.57;;;;;;;;;;5031303;28;20830;-86
2023/01/26 04:31:43;;;;;;;41.63;23.80;;;;;;;;;;5032012;28;20411;-87
2023/01/26 04:34:11;;;;;;;44.20;20.97;;;;;;;;;;5032721;28;20416;-86
2023/01/26 04:36:37;;;;;;;39.67;21.33;;;;;;;;;;5032122;28;20753;-86
2023/01/26 04:39:03;;;;;;;41.37;21.60;;;;;;;;;;5034967;28;20428;-87
2023/01/26 04:41:30;;;;;;;36.50;19.60;;;;;;;;;;5036006;28;20495;-86
2023/01/26 04:43:56;;;;;;;38.03;22.30;;;;;;;;;;5034917;28;20452;-86
2023/01/26 04:46:22;;;;;;;36.50;21.87;;;;;;;;;;5034780;28;20511;-86
2023/01/26 04:48:48;;;;;;;35.57;21.17;;;;;;;;;;5034429;28;20466;-86
2023/01/26 04:51:16;;;;;;;40.37;21.03;;;;;;;;;;5035319;28;20467;-86
2023/01/26 04:53:42;;;;;;;39.67;21.80;;;;;;;;;;5036268;28;20456;-86
2023/01/26 04:56:14;;;;;;;37.17;21.00;;;;;;;;;;5035364;28;20428;-86
2023/01/26 04:58:40;;;;;;;34.43;20.27;;;;;;;;;;5040103;28;20413;-86
2023/01/26 05:01:06;;;;;;;37.97;22.60;;;;;;;;;;5037338;28;20412;-86
2023/01/26 05:03:32;;;;;;;36.83;21.07;;;;;;;;;;5035385;28;20471;-86
2023/01/26 05:05:58;;;;;;;39.67;20.50;;;;;;;;;;5034297;28;20474;-86
2023/01/26 05:08:24;;;;;;;35.40;21.37;;;;;;;;;;5035429;28;20467;-86
2023/01/26 05:10:51;;;;;;;35.77;18.83;;;;;;;;;;5034872;28;20413;-87
2023/01/26 05:13:17;;;;;;;34.47;20.43;;;;;;;;;;5023383;28;20467;-87
2023/01/26 05:15:43;;;;;;;35.30;19.50;;;;;;;;;;5035120;28;20649;-85
2023/01/26 05:18:09;;;;;;;35.63;20.27;;;;;;;;;;5034810;28;20428;-87
2023/01/26 05:20:35;;;;;;;34.57;20.10;;;;;;;;;;5034796;28;20424;-85
2023/01/26 05:23:01;;;;;;;40.63;21.93;;;;;;;;;;5035199;28;20449;-85
2023/01/26 05:25:27;;;;;;;36.90;20.07;;;;;;;;;;5034415;28;20425;-87
2023/01/26 05:27:53;;;;;;;40.00;20.93;;;;;;;;;;5035500;28;20501;-87
2023/01/26 05:30:20;;;;;;;34.20;21.03;;;;;;;;;;5036294;28;20893;-87
2023/01/26 05:32:46;;;;;;;34.07;19.37;;;;;;;;;;5034132;28;20434;-87
2023/01/26 05:35:12;;;;;;;37.97;19.83;;;;;;;;;;5034346;28;20520;-86
2023/01/26 05:37:38;;;;;;;31.80;19.07;;;;;;;;;;5033759;28;20597;-87
2023/01/26 05:40:04;;;;;;;31.50;19.53;;;;;;;;;;5034197;28;20416;-87
2023/01/26 05:42:30;;;;;;;36.60;21.00;;;;;;;;;;5033740;28;20467;-85
2023/01/26 05:44:56;;;;;;;34.43;18.97;;;;;;;;;;5032498;28;20447;-89
2023/01/26 05:47:22;;;;;;;35.27;18.67;;;;;;;;;;5033761;28;20416;-85
2023/01/26 05:49:49;;;;;;;35.87;19.83;;;;;;;;;;5032130;28;20437;-86
2023/01/26 05:52:16;;;;;;;33.30;19.17;;;;;;;;;;5031868;28;20871;-86
2023/01/26 05:54:42;;;;;;;33.30;19.63;;;;;;;;;;5030708;28;20460;-87
2023/01/26 05:57:08;;;;;;;34.43;18.37;;;;;;;;;;5045635;28;20436;-88
2023/01/26 05:59:34;;;;;;;32.63;19.30;;;;;;;;;;5034537;28;20543;-87
2023/01/26 06:02:00;;;;;;;35.07;19.80;;;;;;;;;;5037065;28;20466;-87
2023/01/26 06:04:27;;;;;;;30.53;18.13;;;;;;;;;;5034185;28;20429;-87
2023/01/26 06:06:57;;;;;;;36.03;20.20;;;;;;;;;;5032447;28;20993;-85
2023/01/26 06:09:23;;;;;;;35.13;18.40;;;;;;;;;;5034807;28;20449;-87
2023/01/26 06:11:49;;;;;;;31.13;19.17;;;;;;;;;;5033002;28;20425;-86
2023/01/26 06:14:15;;;;;;;32.30;19.07;;;;;;;;;;5032551;28;20412;-86
2023/01/26 06:16:41;;;;;;;31.60;18.37;;;;;;;;;;5020981;28;20880;-88
2023/01/26 06:19:11;;;;;;;33.20;19.10;;;;;;;;;;5033534;28;20436;-89
2023/01/26 06:21:37;;;;;;;35.53;18.60;;;;;;;;;;5034432;28;20911;-89
2023/01/26 06:24:03;;;;;;;35.30;18.57;;;;;;;;;;5033978;28;21015;-88
2023/01/26 06:26:29;;;;;;;35.33;19.40;;;;;;;;;;5032018;28;20885;-89
2023/01/26 06:28:55;;;;;;;28.13;17.37;;;;;;;;;;5034993;28;20421;-87
2023/01/26 06:31:28;;;;;;;31.57;18.07;;;;;;;;;;5033729;28;20631;-91
2023/01/26 06:33:54;;;;;;;30.07;17.50;;;;;;;;;;5033365;28;20523;-87
2023/01/26 06:36:20;;;;;;;31.70;19.53;;;;;;;;;;5029997;28;20401;-89
2023/01/26 06:38:47;;;;;;;32.67;18.33;;;;;;;;;;5034795;28;21054;-87
2023/01/26 06:41:14;;;;;;;30.80;17.97;;;;;;;;;;5033256;28;20443;-87
2023/01/26 06:43:55;;;;;;;27.40;17.00;;;;;;;;;;5035344;28;20456;-88
2023/01/26 06:46:21;;;;;;;30.73;17.63;;;;;;;;;;5035222;28;20409;-88
2023/01/26 06:48:47;;;;;;;26.80;16.60;;;;;;;;;;5036310;28;20429;-87
2023/01/26 06:51:16;;;;;;;31.90;17.67;;;;;;;;;;5035597;28;20452;-87
2023/01/26 06:53:43;;;;;;;29.53;17.50;;;;;;;;;;5042544;28;20555;-87
2023/01/26 06:56:09;;;;;;;28.40;17.30;;;;;;;;;;5034242;28;20428;-85
2023/01/26 06:58:35;;;;;;;31.87;16.73;;;;;;;;;;5036647;28;20758;-87
2023/01/26 07:01:01;;;;;;;29.53;17.57;;;;;;;;;;5034999;28;20759;-80
2023/01/26 07:03:27;;;;;;;30.73;17.37;;;;;;;;;;5032999;28;20475;-86
2023/01/26 07:05:53;;;;;;;30.93;17.17;;;;;;;;;;5033098;28;21007;-75
2023/01/26 07:08:22;;;;;;;30.57;18.43;;;;;;;;;;5034188;28;20428;-83
2023/01/26 07:10:51;;;;;;;33.90;18.37;;;;;;;;;;5032341;28;20436;-84
2023/01/26 07:13:17;;;;;;;30.20;17.30;;;;;;;;;;5033595;28;20412;-84
2023/01/26 07:15:43;;;;;;;32.67;19.03;;;;;;;;;;5029571;28;20835;-83
2023/01/26 07:18:09;;;;;;;30.07;18.13;;;;;;;;;;5031507;28;20918;-78
2023/01/26 07:20:36;;;;;;;31.80;18.13;;;;;;;;;;5032739;28;20439;-83
2023/01/26 07:23:02;;;;;;;30.93;18.20;;;;;;;;;;5028926;28;20950;-81
2023/01/26 07:25:28;;;;;;;30.50;17.97;;;;;;;;;;5025926;28;20483;-83
2023/01/26 07:27:58;;;;;;;28.93;17.07;;;;;;;;;;5027606;28;20532;-80
2023/01/26 07:30:25;;;;;;;28.67;17.57;;;;;;;;;;5032077;28;20439;-84
2023/01/26 07:32:51;;;;;;;32.23;17.90;;;;;;;;;;5038354;28;20423;-85
2023/01/26 07:35:17;;;;;;;27.93;17.53;;;;;;;;;;5035690;28;20401;-81
2023/01/26 07:37:43;;;;;;;30.87;17.27;;;;;;;;;;5034802;28;20424;-82
2023/01/26 07:40:10;;;;;;;26.67;16.87;;;;;;;;;;5029975;28;20515;-81
2023/01/26 07:42:36;;;;;;;26.23;15.90;;;;;;;;;;5022594;28;20843;-81
2023/01/26 07:45:02;;;;;;;30.10;16.87;;;;;;;;;;5029227;28;20536;-81
2023/01/26 07:47:28;;;;;;;28.97;18.60;;;;;;;;;;5030723;28;20448;-81
2023/01/26 07:49:54;;;;;;;26.63;16.73;;;;;;;;;;5031508;28;20455;-80
2023/01/26 07:52:20;;;;;;;27.70;16.90;;;;;;;;;;5030580;28;20474;-83
2023/01/26 07:54:46;;;;;;;28.43;17.00;;;;;;;;;;5029638;28;20476;-80
2023/01/26 07:57:12;;;;;;;31.93;18.57;;;;;;;;;;5029808;28;20429;-81
2023/01/26 07:59:38;;;;;;;28.50;16.70;;;;;;;;;;5028212;28;20433;-82
2023/01/26 08:02:04;;;;;;;27.60;16.47;;;;;;;;;;5029961;28;20510;-81
2023/01/26 08:04:30;;;;;;;31.40;17.70;;;;;;;;;;5031663;28;20750;-82
2023/01/26 08:06:56;;;;;;;29.27;17.33;;;;;;;;;;5031481;28;20436;-81
2023/01/26 08:09:23;;;;;;;27.13;16.20;;;;;;;;;;5031873;28;21262;-81
2023/01/26 08:11:49;;;;;;;30.67;16.40;;;;;;;;;;5031622;28;20464;-80
2023/01/26 08:14:15;;;;;;;29.10;17.37;;;;;;;;;;5035031;28;20444;-81
2023/01/26 08:16:41;;;;;;;28.43;17.23;;;;;;;;;;5036130;28;20440;-81
2023/01/26 08:19:07;;;;;;;27.43;17.10;;;;;;;;;;5033746;28;20950;-82
2023/01/26 08:21:33;;;;;;;27.57;17.63;;;;;;;;;;5035559;28;20538;-80
2023/01/26 08:24:02;;;;;;;29.50;17.27;;;;;;;;;;5036037;28;20971;-85
2023/01/26 08:26:28;;;;;;;30.03;16.97;;;;;;;;;;5051106;28;20432;-82
2023/01/26 08:28:54;;;;;;;25.83;16.30;;;;;;;;;;5035141;28;20420;-80
2023/01/26 08:31:20;;;;;;;26.73;16.57;;;;;;;;;;5034413;28;20452;-81
2023/01/26 08:33:53;;;;;;;26.93;16.07;;;;;;;;;;5035041;28;20799;-81
2023/01/26 08:36:20;;;;;;;28.00;17.63;;;;;;;;;;5034621;28;20520;-81
2023/01/26 08:38:46;;;;;;;28.13;16.83;;;;;;;;;;5036979;28;20518;-81
2023/01/26 08:41:12;;;;;;;28.97;17.17;;;;;;;;;;5034277;28;20522;-80
2023/01/26 08:43:39;;;;;;;28.73;17.10;;;;;;;;;;5035868;28;20464;-81
2023/01/26 08:46:05;;;;;;;27.13;16.23;;;;;;;;;;5033451;28;20428;-81
2023/01/26 08:48:31;;;;;;;32.77;17.80;;;;;;;;;;5034291;28;20976;-81
2023/01/26 08:50:59;;;;;;;30.10;18.30;;;;;;;;;;5034586;28;20951;-81
2023/01/26 08:53:25;;;;;;;29.67;17.63;;;;;;;;;;5035802;28;20472;-81
2023/01/26 08:55:51;;;;;;;30.83;18.60;;;;;;;;;;5034887;28;20517;-82
2023/01/26 08:58:19;;;;;;;32.90;18.07;;;;;;;;;;5033818;28;21000;-81
2023/01/26 09:00:45;;;;;;;30.27;17.33;;;;;;;;;;5034857;28;20789;-80
2023/01/26 09:03:11;;;;;;;27.97;15.87;;;;;;;;;;5035674;28;20468;-81
2023/01/26 09:05:38;;;;;;;27.77;16.77;;;;;;;;;;5032934;28;20444;-80
2023/01/26 09:08:05;;;;;;;30.73;17.33;;;;;;;;;;5033881;28;20912;-81
2023/01/26 09:10:31;;;;;;;30.10;18.00;;;;;;;;;;5034644;28;20945;-81
2023/01/26 09:13:26;;;;;;;26.67;15.97;;;;;;;;;;5034133;28;20501;-82
2023/01/26 09:15:52;;;;;;;25.27;15.93;;;;;;;;;;5017003;28;20451;-80
2023/01/26 09:18:18;;;;;;;30.97;18.07;;;;;;;;;;5033848;28;20437;-84
2023/01/26 09:20:44;;;;;;;30.53;17.00;;;;;;;;;;5032835;28;20471;-81
2023/01/26 09:23:11;;;;;;;32.27;17.67;;;;;;;;;;5034081;28;20490;-80
2023/01/26 09:25:37;;;;;;;29.43;16.93;;;;;;;;;;5033523;28;20828;-81
2023/01/26 09:28:04;;;;;;;28.93;18.00;;;;;;;;;;5033978;28;20431;-80
2023/01/26 09:30:31;;;;;;;29.47;17.30;;;;;;;;;;5034687;28;20444;-81
2023/01/26 09:33:00;;;;;;;31.13;17.23;;;;;;;;;;5035012;28;20906;-81
2023/01/26 09:35:27;;;;;;;31.40;17.60;;;;;;;;;;5034735;28;20429;-80
2023/01/26 09:37:53;;;;;;;30.47;17.87;;;;;;;;;;5033486;28;20433;-80
2023/01/26 09:40:22;;;;;;;29.00;16.73;;;;;;;;;;5031828;28;20464;-80
2023/01/26 09:42:48;;;;;;;26.63;17.63;;;;;;;;;;5033761;28;20524;-81
2023/01/26 09:45:14;;;;;;;29.37;16.67;;;;;;;;;;5032161;28;20435;-81
2023/01/26 09:47:51;;;;;;;28.53;16.10;;;;;;;;;;5032482;28;20748;-82
2023/01/26 09:50:30;;;;;;;23.40;15.13;;;;;;;;;;5032503;28;20260;-79
2023/01/26 09:53:05;;;;;;;27.80;15.57;;;;;;;;;;5033055;28;20483;-79
2023/01/26 09:55:31;;;;;;;25.27;15.20;;;;;;;;;;5033202;28;20420;-80
2023/01/26 09:58:03;;;;;;;28.40;16.30;;;;;;;;;;5034078;28;20443;-81
2023/01/26 10:00:32;;;;;;;24.83;15.07;;;;;;;;;;5032403;28;20463;-80
2023/01/26 10:03:13;;;;;;;24.57;16.03;;;;;;;;;;5030782;28;20495;-82
2023/01/26 10:05:45;;;;;;;20.80;13.27;;;;;;;;;;5031753;28;20487;-80
2023/01/26 10:08:12;;;;;;;24.23;14.63;;;;;;;;;;5029095;28;20945;-83
2023/01/26 10:10:48;;;;;;;27.80;17.23;;;;;;;;;;5030925;28;20812;-83
2023/01/26 10:13:15;;;;;;;23.40;15.43;;;;;;;;;;5031543;28;20937;-83
2023/01/26 10:15:43;;;;;;;23.67;14.13;;;;;;;;;;5032108;28;20441;-83
2023/01/26 10:18:12;;;;;;;22.33;13.43;;;;;;;;;;5033336;28;20487;-83
2023/01/26 10:20:41;;;;;;;21.90;13.33;;;;;;;;;;5033577;28;20479;-83
2023/01/26 10:23:16;;;;;;;23.40;13.90;;;;;;;;;;5030817;28;20539;-85
2023/01/26 10:25:43;;;;;;;22.90;13.90;;;;;;;;;;5031772;28;20424;-84
2023/01/26 10:28:17;;;;;;;21.63;14.27;;;;;;;;;;5031959;28;20439;-84
2023/01/26 10:30:45;;;;;;;22.83;13.07;;;;;;;;;;5031571;28;20478;-84
2023/01/26 10:33:16;;;;;;;18.93;11.70;;;;;;;;;;5031697;28;20428;-82
2023/01/26 10:35:42;;;;;;;20.00;11.67;;;;;;;;;;5032180;28;20428;-85
2023/01/26 10:38:27;;;;;;;19.00;12.37;;;;;;;;;;5032149;28;20947;-83
2023/01/26 10:40:53;;;;;;;21.00;12.83;;;;;;;;;;5030558;28;20428;-85
2023/01/26 10:43:19;;;;;;;19.00;11.73;;;;;;;;;;5032147;28;20464;-83
2023/01/26 10:45:47;;;;;;;18.60;10.67;;;;;;;;;;5034411;28;20433;-83
2023/01/26 10:48:13;;;;;;;18.67;11.57;;;;;;;;;;5031026;28;20560;-82
2023/01/26 10:50:39;;;;;;;20.40;12.03;;;;;;;;;;5029650;28;20443;-83
2023/01/26 10:53:05;;;;;;;18.80;11.37;;;;;;;;;;5027042;28;20480;-83
2023/01/26 10:55:32;;;;;;;18.07;11.80;;;;;;;;;;5019017;28;20943;-85
2023/01/26 10:58:34;;;;;;;17.03;10.77;;;;;;;;;;5041315;28;20433;-85
2023/01/26 11:01:00;;;;;;;15.20;9.63;;;;;;;;;;4980053;28;20487;-87
2023/01/26 11:03:27;;;;;;;16.03;10.70;;;;;;;;;;5031481;28;20468;-83
2023/01/26 11:06:17;;;;;;;15.27;9.23;;;;;;;;;;5035435;28;20951;-85
2023/01/26 11:08:43;;;;;;;14.77;9.10;;;;;;;;;;5027580;28;20437;-85
2023/01/26 11:11:23;;;;;;;18.00;10.13;;;;;;;;;;5031269;28;20501;-84
2023/01/26 11:14:00;;;;;;;14.80;8.87;;;;;;;;;;5031561;28;20845;-85
2023/01/26 11:16:27;;;;;;;15.63;9.57;;;;;;;;;;5043007;28;20460;-83
2023/01/26 11:18:56;;;;;;;14.50;9.73;;;;;;;;;;5030937;28;20467;-83
2023/01/26 11:21:30;;;;;;;16.00;9.40;;;;;;;;;;5030299;28;20433;-83
2023/01/26 11:24:00;;;;;;;14.83;9.10;;;;;;;;;;5032921;28;20510;-86
2023/01/26 11:26:43;;;;;;;12.90;7.90;;;;;;;;;;5032638;28;20436;-83
2023/01/26 11:29:28;;;;;;;14.00;9.03;;;;;;;;;;5027483;28;20453;-84
2023/01/26 11:31:54;;;;;;;11.80;8.20;;;;;;;;;;5037926;28;20764;-85
2023/01/26 11:34:25;;;;;;;11.67;8.13;;;;;;;;;;5035970;28;20778;-84
2023/01/26 11:36:51;;;;;;;14.30;9.40;;;;;;;;;;5026620;28;20999;-84
2023/01/26 11:39:35;;;;;;;11.33;7.57;;;;;;;;;;5031704;28;20424;-81
2023/01/26 11:42:04;;;;;;;12.10;8.00;;;;;;;;;;5031825;28;20192;-82
2023/01/26 11:44:48;;;;;;;11.13;7.90;;;;;;;;;;5030236;28;20587;-86
2023/01/26 11:47:17;;;;;;;10.53;7.00;;;;;;;;;;5031546;28;20578;-84
2023/01/26 11:49:56;;;;;;;10.90;7.63;;;;;;;;;;5030592;28;20436;-84
2023/01/26 11:52:25;;;;;;;12.63;7.40;;;;;;;;;;5031004;28;20478;-83
2023/01/26 11:55:06;;;;;;;12.53;7.20;;;;;;;;;;5029307;28;20543;-85
2023/01/26 11:58:05;;;;;;;10.07;6.70;;;;;;;;;;5031445;28;20923;-81
2023/01/26 12:00:42;;;;;;;12.00;6.70;;;;;;;;;;4998787;28;20490;-81
2023/01/26 12:03:38;;;;;;;12.13;8.17;;;;;;;;;;5023196;28;20552;-81
2023/01/26 12:06:06;;;;;;;12.10;8.00;;;;;;;;;;5009655;28;20956;-83
2023/01/26 12:08:51;;;;;;;9.37;6.17;;;;;;;;;;5024948;28;20819;-81
2023/01/26 12:11:22;;;;;;;8.93;6.27;;;;;;;;;;5029730;28;20413;-82
2023/01/26 12:14:08;;;;;;;9.57;6.53;;;;;;;;;;5031148;28;20496;-84
2023/01/26 12:16:37;;;;;;;8.90;6.23;;;;;;;;;;4992202;28;20452;-84
2023/01/26 12:19:12;;;;;;;10.23;6.90;;;;;;;;;;5027800;28;20190;-83
2023/01/26 12:21:42;;;;;;;9.17;5.70;;;;;;;;;;5024242;28;20466;-81
2023/01/26 12:24:12;;;;;;;13.47;7.40;;;;;;;;;;5029497;28;20539;-83
2023/01/26 12:26:41;;;;;;;9.70;6.50;;;;;;;;;;5027896;28;20508;-83
2023/01/26 12:29:20;;;;;;;11.67;7.50;;;;;;;;;;5040088;28;20438;-81
2023/01/26 12:31:55;;;;;;;9.30;6.43;;;;;;;;;;5029270;28;20412;-83
2023/01/26 12:34:32;;;;;;;8.97;6.73;;;;;;;;;;5032016;28;20447;-83
2023/01/26 12:37:16;;;;;;;10.47;6.87;;;;;;;;;;5044895;28;20463;-82
2023/01/26 12:39:52;;;;;;;9.23;6.23;;;;;;;;;;5023463;28;20579;-81
2023/01/26 12:42:24;;;;;;;7.57;6.27;;;;;;;;;;5026610;28;20519;-82
2023/01/26 12:44:58;;;;;;;8.77;5.80;;;;;;;;;;5048057;28;20967;-82
2023/01/26 12:47:30;;;;;;;9.30;6.00;;;;;;;;;;5047177;28;20431;-81
2023/01/26 12:50:15;;;;;;;10.03;6.77;;;;;;;;;;5030144;28;20432;-82
2023/01/26 12:52:41;;;;;;;10.17;6.77;;;;;;;;;;5017947;28;20480;-81
2023/01/26 12:55:14;;;;;;;9.40;5.73;;;;;;;;;;5030709;28;20516;-81
2023/01/26 12:58:04;;;;;;;8.47;6.23;;;;;;;;;;5028710;28;20268;-83
2023/01/26 13:00:32;;;;;;;7.70;5.60;;;;;;;;;;5029443;28;20439;-83
2023/01/26 13:03:15;;;;;;;7.70;5.33;;;;;;;;;;5048043;28;20837;-82
2023/01/26 13:05:55;;;;;;;9.57;6.23;;;;;;;;;;5050146;28;20435;-82
2023/01/26 13:08:30;;;;;;;7.77;5.73;;;;;;;;;;5029962;28;20513;-82
2023/01/26 13:10:57;;;;;;;7.27;5.43;;;;;;;;;;5035753;28;20829;-82
2023/01/26 13:13:28;;;;;;;7.57;5.53;;;;;;;;;;5026573;28;20858;-83
2023/01/26 13:16:30;;;;;;;9.50;5.87;;;;;;;;;;5023583;28;20435;-81
2023/01/26 13:18:57;;;;;;;8.80;5.87;;;;;;;;;;4978345;28;20503;-82
2023/01/26 13:21:27;;;;;;;8.63;6.37;;;;;;;;;;5015684;28;20441;-83
2023/01/26 13:23:53;;;;;;;9.10;6.73;;;;;;;;;;5026085;28;20448;-82
2023/01/26 13:26:32;;;;;;;6.90;4.80;;;;;;;;;;5032852;28;20420;-81
2023/01/26 13:29:16;;;;;;;9.37;5.30;;;;;;;;;;5031837;28;20420;-82
2023/01/26 13:31:43;;;;;;;9.67;7.03;;;;;;;;;;5028979;28;20452;-82
2023/01/26 13:34:09;;;;;;;11.80;6.43;;;;;;;;;;5023986;28;20221;-82
2023/01/26 13:36:37;;;;;;;9.23;6.30;;;;;;;;;;5028815;28;20503;-82
2023/01/26 13:39:10;;;;;;;10.43;6.87;;;;;;;;;;5028914;28;20439;-84
2023/01/26 13:41:43;;;;;;;8.57;6.03;;;;;;;;;;5032636;28;20551;-82
2023/01/26 13:44:21;;;;;;;8.77;6.13;;;;;;;;;;5046944;28;20479;-81
2023/01/26 13:46:54;;;;;;;9.90;6.80;;;;;;;;;;5034474;28;20934;-81
2023/01/26 13:49:26;;;;;;;9.07;5.87;;;;;;;;;;5026661;28;20445;-83
2023/01/26 13:51:52;;;;;;;10.97;6.27;;;;;;;;;;5030243;28;20670;-84
2023/01/26 13:54:18;;;;;;;10.23;6.53;;;;;;;;;;5032044;28;20454;-83
2023/01/26 13:57:01;;;;;;;9.50;6.63;;;;;;;;;;5030261;28;20464;-81
2023/01/26 13:59:27;;;;;;;11.57;6.90;;;;;;;;;;5044702;28;20535;-82
2023/01/26 14:01:54;;;;;;;11.23;7.20;;;;;;;;;;5052405;28;20433;-82
2023/01/26 14:04:25;;;;;;;11.37;6.57;;;;;;;;;;5033392;28;20475;-81
2023/01/26 14:07:03;;;;;;;11.87;7.10;;;;;;;;;;5031976;28;20452;-82
2023/01/26 14:09:34;;;;;;;10.33;6.40;;;;;;;;;;5023498;28;20444;-82
2023/01/26 14:12:02;;;;;;;11.63;7.40;;;;;;;;;;5034586;28;20424;-81
2023/01/26 14:14:30;;;;;;;13.43;8.67;;;;;;;;;;5033719;28;20521;-82
2023/01/26 14:17:00;;;;;;;15.20;8.80;;;;;;;;;;5033999;28;20440;-81
2023/01/26 14:19:27;;;;;;;15.70;9.20;;;;;;;;;;5034370;28;20998;-82
2023/01/26 14:21:55;;;;;;;17.07;9.30;;;;;;;;;;5033734;28;20800;-81
2023/01/26 14:24:26;;;;;;;13.73;8.87;;;;;;;;;;5029350;28;20818;-83
2023/01/26 14:26:53;;;;;;;19.33;10.33;;;;;;;;;;5029287;28;20425;-82
2023/01/26 14:29:21;;;;;;;16.03;10.13;;;;;;;;;;5028225;28;20486;-82
2023/01/26 14:31:48;;;;;;;20.27;10.47;;;;;;;;;;5037016;28;20389;-83
2023/01/26 14:34:19;;;;;;;15.03;9.33;;;;;;;;;;5040647;28;20551;-82
2023/01/26 14:36:45;;;;;;;17.80;9.70;;;;;;;;;;5039949;28;20448;-83
2023/01/26 14:39:20;;;;;;;22.00;10.97;;;;;;;;;;5036834;28;20401;-81
2023/01/26 14:41:48;;;;;;;22.87;9.97;;;;;;;;;;5033492;28;21110;-82
2023/01/26 14:44:14;;;;;;;19.77;11.03;;;;;;;;;;5034868;28;20586;-81
2023/01/26 14:47:00;;;;;;;23.13;12.10;;;;;;;;;;5033635;28;20469;-82
2023/01/26 14:49:58;;;;;;;23.33;11.67;;;;;;;;;;5033870;28;20404;-82
2023/01/26 14:52:26;;;;;;;22.73;11.80;;;;;;;;;;4978376;28;20528;-82
2023/01/26 14:54:53;;;;;;;23.37;12.93;;;;;;;;;;5029833;28;20543;-83
2023/01/26 14:57:27;;;;;;;22.00;12.80;;;;;;;;;;5032079;28;20762;-84
2023/01/26 14:59:55;;;;;;;21.80;13.17;;;;;;;;;;5031321;28;20459;-85
2023/01/26 15:02:23;;;;;;;23.00;12.67;;;;;;;;;;5033203;28;20452;-83
2023/01/26 15:04:55;;;;;;;22.60;13.07;;;;;;;;;;5032202;28;20568;-83
2023/01/26 15:07:41;;;;;;;29.73;13.43;;;;;;;;;;5035054;28;20508;-83
2023/01/26 15:10:26;;;;;;;26.40;14.17;;;;;;;;;;5032479;28;20975;-84
2023/01/26 15:13:16;;;;;;;27.57;13.47;;;;;;;;;;5032794;28;20443;-83
2023/01/26 15:15:47;;;;;;;19.13;12.10;;;;;;;;;;5027806;28;20965;-83
2023/01/26 15:18:13;;;;;;;24.30;14.80;;;;;;;;;;5032422;28;20518;-86
2023/01/26 15:20:43;;;;;;;24.80;13.30;;;;;;;;;;5032613;28;20448;-83